createdAt,value
2022-08-17T00:02:26.412Z,7.35
2022-08-17T00:04:54.802Z,6.57
2022-08-17T00:07:21.562Z,9.20
2022-08-17T00:09:48.224Z,9.38
2022-08-17T00:12:42.997Z,8.88
2022-08-17T00:15:02.283Z,9.65
2022-08-17T00:17:29.122Z,8.52
2022-08-17T00:19:55.759Z,9.43
2022-08-17T00:22:33.972Z,9.85
2022-08-17T00:25:10.462Z,12.38
2022-08-17T00:27:37.125Z,12.23
2022-08-17T00:30:09.682Z,16.33
2022-08-17T00:33:13.959Z,14.88
2022-08-17T00:35:27.797Z,12.93
2022-08-17T00:37:55.473Z,10.38
2022-08-17T00:40:24.784Z,11.65
2022-08-17T00:42:53.379Z,14.35
2022-08-17T00:45:22.592Z,10.35
2022-08-17T00:47:49.578Z,15.10
2022-08-17T00:50:18.951Z,14.95
2022-08-17T00:52:53.229Z,9.82
2022-08-17T00:55:20.919Z,8.40
2022-08-17T00:57:55.527Z,10.93
2022-08-17T01:00:29.676Z,10.93
2022-08-17T01:03:00.435Z,7.50
2022-08-17T01:05:29.533Z,8.65
2022-08-17T01:07:57.238Z,8.32
2022-08-17T01:10:59.689Z,11.75
2022-08-17T01:13:18.082Z,10.13
2022-08-17T01:16:04.782Z,12.18
2022-08-17T01:18:32.691Z,10.43
2022-08-17T01:21:05.166Z,14.63
2022-08-17T01:23:32.023Z,10.40
2022-08-17T01:26:01.854Z,11.07
2022-08-17T01:28:33.650Z,11.05
2022-08-17T01:31:18.630Z,8.85
2022-08-17T01:33:45.562Z,10.73
2022-08-17T01:36:12.221Z,8.50
2022-08-17T01:38:39.557Z,8.05
2022-08-17T01:41:11.719Z,9.45
2022-08-17T01:44:00.659Z,11.02
2022-08-17T01:46:32.046Z,10.63
2022-08-17T01:48:59.168Z,9.63
2022-08-17T01:51:32.433Z,11.55
2022-08-17T01:54:05.216Z,11.15
2022-08-17T01:56:35.060Z,9.45
2022-08-17T01:59:01.746Z,8.50
2022-08-17T02:01:31.128Z,6.80
2022-08-17T02:04:00.777Z,8.70
2022-08-17T02:06:30.636Z,6.50
2022-08-17T02:09:02.824Z,10.65
2022-08-17T02:11:32.358Z,8.88
2022-08-17T02:14:03.372Z,9.82
2022-08-17T02:16:36.856Z,8.20
2022-08-17T02:19:09.930Z,8.20
2022-08-17T02:21:38.354Z,8.73
2022-08-17T02:24:08.308Z,10.38
2022-08-17T02:26:35.220Z,8.55
2022-08-17T02:29:01.979Z,9.98
2022-08-17T02:31:30.036Z,6.95
2022-08-17T02:34:04.021Z,6.57
2022-08-17T02:36:35.605Z,10.35
2022-08-17T02:39:04.782Z,8.60
2022-08-17T02:41:31.711Z,7.07
2022-08-17T02:43:58.686Z,7.88
2022-08-17T02:46:25.849Z,6.07
2022-08-17T02:48:52.513Z,5.10
2022-08-17T02:51:20.033Z,7.45
2022-08-17T02:53:46.859Z,4.53
2022-08-17T02:56:13.632Z,6.57
2022-08-17T02:58:40.275Z,7.07
2022-08-17T03:01:09.189Z,5.20
2022-08-17T03:03:37.173Z,5.95
2022-08-17T03:06:04.558Z,6.20
2022-08-17T03:08:31.592Z,6.45
2022-08-17T03:10:58.125Z,5.75
2022-08-17T03:13:24.878Z,7.25
2022-08-17T03:15:51.788Z,5.93
2022-08-17T03:18:24.793Z,7.95
2022-08-17T03:20:57.890Z,6.82
2022-08-17T03:23:25.984Z,6.40
2022-08-17T03:25:54.310Z,7.05
2022-08-17T03:28:21.954Z,8.15
2022-08-17T03:30:49.310Z,6.47
2022-08-17T03:33:16.992Z,5.70
2022-08-17T03:35:44.381Z,7.47
2022-08-17T03:38:12.306Z,6.43
2022-08-17T03:40:57.135Z,5.05
2022-08-17T03:43:25.406Z,4.20
2022-08-17T03:46:20.731Z,6.57
2022-08-17T03:49:15.057Z,7.28
2022-08-17T03:52:18.928Z,5.45
2022-08-17T03:55:07.906Z,5.15
2022-08-17T03:57:35.386Z,6.20
2022-08-17T04:00:02.934Z,4.35
2022-08-17T04:02:38.733Z,4.25
2022-08-17T04:05:05.762Z,5.78
2022-08-17T04:07:32.305Z,4.85
2022-08-17T04:09:59.656Z,4.10
2022-08-17T04:12:30.813Z,5.43
2022-08-17T04:14:58.235Z,4.43
2022-08-17T04:17:29.378Z,4.20
2022-08-17T04:19:56.375Z,5.18
2022-08-17T04:22:30.099Z,4.82
2022-08-17T04:25:17.675Z,3.60
2022-08-17T04:27:44.513Z,5.00
2022-08-17T04:30:12.199Z,5.00
2022-08-17T04:33:04.850Z,4.20
2022-08-17T04:35:45.843Z,7.28
2022-08-17T04:38:17.957Z,6.18
2022-08-17T04:41:03.535Z,4.75
2022-08-17T04:43:32.808Z,3.78
2022-08-17T04:46:06.238Z,5.88
2022-08-17T04:48:42.853Z,3.83
2022-08-17T04:51:25.136Z,4.38
2022-08-17T04:53:55.756Z,5.32
2022-08-17T04:56:25.033Z,5.13
2022-08-17T04:58:54.040Z,5.82
2022-08-17T05:01:24.299Z,5.13
2022-08-17T05:03:56.499Z,5.35
2022-08-17T05:06:23.657Z,8.38
2022-08-17T05:08:50.244Z,6.95
2022-08-17T05:11:17.299Z,7.10
2022-08-17T05:13:44.790Z,8.60
2022-08-17T05:16:11.814Z,5.60
2022-08-17T05:18:39.053Z,9.48
2022-08-17T05:21:07.041Z,6.85
2022-08-17T05:23:42.990Z,5.28
2022-08-17T05:26:17.966Z,6.53
2022-08-17T05:28:59.401Z,6.10
2022-08-17T05:31:26.959Z,4.20
2022-08-17T05:33:53.701Z,8.23
2022-08-17T05:36:37.870Z,4.57
2022-08-17T05:39:07.570Z,5.05
2022-08-17T05:41:34.087Z,6.47
2022-08-17T05:44:00.697Z,5.07
2022-08-17T05:46:38.779Z,6.45
2022-08-17T05:49:11.103Z,9.20
2022-08-17T05:51:52.886Z,5.53
2022-08-17T05:54:49.114Z,7.28
2022-08-17T05:57:27.640Z,5.35
2022-08-17T06:00:03.043Z,4.30
2022-08-17T06:02:51.330Z,6.22
2022-08-17T06:05:45.704Z,7.05
2022-08-17T06:08:21.983Z,6.35
2022-08-17T06:11:20.101Z,5.30
2022-08-17T06:14:01.417Z,7.30
2022-08-17T06:16:35.450Z,5.13
2022-08-17T06:19:11.173Z,7.93
2022-08-17T06:21:41.603Z,7.75
2022-08-17T06:24:35.080Z,5.20
2022-08-17T06:27:12.452Z,5.68
2022-08-17T06:30:05.394Z,6.95
2022-08-17T06:32:32.125Z,6.45
2022-08-17T06:35:01.000Z,7.40
2022-08-17T06:37:37.199Z,4.70
2022-08-17T06:40:37.475Z,4.72
2022-08-17T06:43:22.471Z,7.70
2022-08-17T06:45:57.432Z,5.60
2022-08-17T06:48:56.447Z,7.68
2022-08-17T06:51:27.845Z,11.50
2022-08-17T06:54:05.225Z,7.93
2022-08-17T06:56:52.694Z,9.35
2022-08-17T06:59:54.193Z,7.43
2022-08-17T07:02:29.376Z,5.93
2022-08-17T07:05:09.819Z,6.05
2022-08-17T07:07:58.217Z,11.50
2022-08-17T07:10:26.107Z,7.07
2022-08-17T07:12:57.876Z,6.78
2022-08-17T07:15:38.829Z,5.10
2022-08-17T07:18:05.475Z,5.03
2022-08-17T07:20:33.420Z,8.13
2022-08-17T07:23:06.074Z,5.35
2022-08-17T07:25:33.027Z,7.70
2022-08-17T07:28:04.244Z,4.80
2022-08-17T07:30:46.839Z,5.72
2022-08-17T07:33:34.921Z,4.30
2022-08-17T07:36:01.635Z,5.60
2022-08-17T07:38:32.091Z,4.30
2022-08-17T07:41:02.758Z,7.13
2022-08-17T07:43:40.822Z,4.30
2022-08-17T07:46:41.160Z,7.10
2022-08-17T07:49:11.129Z,4.28
2022-08-17T07:51:43.767Z,5.25
2022-08-17T07:54:16.595Z,5.72
2022-08-17T07:56:47.781Z,5.38
2022-08-17T07:59:23.100Z,4.43
2022-08-17T08:01:57.932Z,8.77
2022-08-17T08:04:59.741Z,7.28
2022-08-17T08:07:34.774Z,6.05
2022-08-17T08:10:29.858Z,6.87
2022-08-17T08:13:14.549Z,5.85
2022-08-17T08:15:53.741Z,4.40
2022-08-17T08:18:54.916Z,5.95
2022-08-17T08:21:29.043Z,4.30
2022-08-17T08:24:07.990Z,5.15
2022-08-17T08:26:49.154Z,5.50
2022-08-17T08:29:38.179Z,4.07
2022-08-17T08:32:29.089Z,8.23
2022-08-17T08:35:10.368Z,4.78
2022-08-17T08:38:07.866Z,4.50
2022-08-17T08:41:02.410Z,6.43
2022-08-17T08:44:01.313Z,4.82
2022-08-17T08:46:47.055Z,4.75
2022-08-17T08:52:48.165Z,4.68
2022-08-17T08:55:42.603Z,5.47
2022-08-17T08:58:41.262Z,4.22
2022-08-17T09:01:18.667Z,6.88
2022-08-17T09:03:53.352Z,8.15
2022-08-17T09:06:39.831Z,4.63
2022-08-17T09:09:18.876Z,5.45
2022-08-17T09:12:01.257Z,9.98
2022-08-17T09:14:46.721Z,4.30
2022-08-17T09:17:18.317Z,4.65
2022-08-17T09:20:11.198Z,4.30
2022-08-17T09:22:44.983Z,6.65
2022-08-17T09:25:28.353Z,6.30
2022-08-17T09:28:06.698Z,5.05
2022-08-17T09:30:45.635Z,6.70
2022-08-17T09:33:17.617Z,4.90
2022-08-17T09:36:08.456Z,6.85
2022-08-17T09:38:52.725Z,7.93
2022-08-17T09:41:33.490Z,6.88
2022-08-17T09:44:10.754Z,6.32
2022-08-17T09:47:01.402Z,6.00
2022-08-17T09:49:38.165Z,6.70
2022-08-17T09:52:18.623Z,6.25
2022-08-17T09:54:46.740Z,6.88
2022-08-17T09:57:32.516Z,5.43
2022-08-17T10:00:25.618Z,5.28
2022-08-17T10:03:16.287Z,5.80
2022-08-17T10:05:56.401Z,4.63
2022-08-17T10:08:42.306Z,5.68
2022-08-17T10:11:50.602Z,6.47
2022-08-17T10:14:46.893Z,7.68
2022-08-17T10:17:45.539Z,5.78
2022-08-17T10:20:17.548Z,7.07
2022-08-17T10:23:15.061Z,6.65
2022-08-17T10:26:04.668Z,6.95
2022-08-17T10:28:57.242Z,5.22
2022-08-17T10:31:35.897Z,5.15
2022-08-17T10:34:17.262Z,4.63
2022-08-17T10:37:05.684Z,8.75
2022-08-17T10:39:52.708Z,7.88
2022-08-17T10:42:48.908Z,8.70
2022-08-17T10:45:28.092Z,5.05
2022-08-17T10:48:28.390Z,5.88
2022-08-17T10:51:01.068Z,4.03
2022-08-17T10:53:33.652Z,9.85
2022-08-17T10:56:12.943Z,5.50
2022-08-17T10:58:47.477Z,4.93
2022-08-17T11:01:14.268Z,4.43
2022-08-17T11:03:54.978Z,7.13
2022-08-17T11:07:03.333Z,5.28
2022-08-17T11:09:44.942Z,8.50
2022-08-17T11:12:33.115Z,3.95
2022-08-17T11:15:22.175Z,5.53
2022-08-17T11:18:01.569Z,6.47
2022-08-17T11:20:31.187Z,6.30
2022-08-17T11:23:10.088Z,6.50
2022-08-17T11:25:41.898Z,5.10
2022-08-17T11:28:19.496Z,6.88
2022-08-17T11:30:50.825Z,4.88
2022-08-17T11:33:29.342Z,6.22
2022-08-17T11:36:19.135Z,7.22
2022-08-17T11:38:59.037Z,6.55
2022-08-17T11:41:55.225Z,5.70
2022-08-17T11:44:40.699Z,5.53
2022-08-17T11:50:57.526Z,8.45
2022-08-17T11:53:37.154Z,4.18
2022-08-17T11:56:41.032Z,5.47
2022-08-17T11:59:46.074Z,5.60
2022-08-17T12:02:36.094Z,4.97
2022-08-17T12:05:14.790Z,8.60
2022-08-17T12:08:04.310Z,3.70
2022-08-17T12:10:35.417Z,8.57
2022-08-17T12:13:15.498Z,4.78
2022-08-17T12:15:48.750Z,4.85
2022-08-17T12:18:28.991Z,7.28
2022-08-17T12:21:24.988Z,4.70
2022-08-17T12:23:55.619Z,5.07
2022-08-17T12:26:27.122Z,4.45
2022-08-17T12:29:01.546Z,4.07
2022-08-17T12:31:35.067Z,5.22
2022-08-17T12:34:04.029Z,6.22
2022-08-17T12:36:32.607Z,11.35
2022-08-17T12:39:14.000Z,7.28
2022-08-17T12:41:45.188Z,9.30
2022-08-17T12:44:12.297Z,4.80
2022-08-17T12:47:00.625Z,7.35
2022-08-17T12:49:35.254Z,6.55
2022-08-17T12:52:13.977Z,7.60
2022-08-17T12:54:46.649Z,7.28
2022-08-17T12:57:20.647Z,6.70
2022-08-17T12:59:54.799Z,3.95
2022-08-17T13:02:37.631Z,6.05
2022-08-17T13:05:05.343Z,5.93
2022-08-17T13:07:44.727Z,6.38
2022-08-17T13:10:33.284Z,8.38
2022-08-17T13:13:05.227Z,7.60
2022-08-17T13:15:44.701Z,5.43
2022-08-17T13:18:36.584Z,8.60
2022-08-17T13:21:03.303Z,9.48
2022-08-17T13:23:31.343Z,7.00
2022-08-17T13:26:15.879Z,5.70
2022-08-17T13:28:51.683Z,6.30
2022-08-17T13:31:42.834Z,5.00
2022-08-17T13:34:33.407Z,6.28
2022-08-17T13:37:21.845Z,4.45
2022-08-17T13:39:49.965Z,5.40
2022-08-17T13:42:48.115Z,7.63
2022-08-17T13:45:35.970Z,9.00
2022-08-17T13:48:12.364Z,7.80
2022-08-17T13:51:02.606Z,5.22
2022-08-17T13:53:36.382Z,4.20
2022-08-17T13:56:33.521Z,8.60
2022-08-17T13:59:12.320Z,6.50
2022-08-17T14:01:53.417Z,7.30
2022-08-17T14:04:31.814Z,5.40
2022-08-17T14:07:03.051Z,7.97
2022-08-17T14:09:37.357Z,7.70
2022-08-17T14:12:10.592Z,7.65
2022-08-17T14:14:37.730Z,6.93
2022-08-17T14:17:04.531Z,8.38
2022-08-17T14:19:31.170Z,12.23
2022-08-17T14:21:59.073Z,7.93
2022-08-17T14:24:29.213Z,7.07
2022-08-17T14:26:56.808Z,9.75
2022-08-17T14:29:25.809Z,6.07
2022-08-17T14:31:54.516Z,6.05
2022-08-17T14:34:22.746Z,5.68
2022-08-17T14:36:49.446Z,9.13
2022-08-17T14:39:16.725Z,8.20
2022-08-17T14:41:43.663Z,7.22
2022-08-17T14:44:13.763Z,6.30
2022-08-17T14:46:42.129Z,8.07
2022-08-17T14:49:12.498Z,6.32
2022-08-17T14:51:43.580Z,8.13
2022-08-17T14:54:33.370Z,9.15
2022-08-17T14:57:22.275Z,7.25
2022-08-17T14:59:45.911Z,8.27
2022-08-17T15:02:13.683Z,8.23
2022-08-17T15:04:45.372Z,14.02
2022-08-17T15:07:12.438Z,7.15
2022-08-17T15:09:39.223Z,6.68
2022-08-17T15:12:09.177Z,9.23
2022-08-17T15:14:36.528Z,8.65
2022-08-17T15:17:04.258Z,8.98
2022-08-17T15:19:31.093Z,8.35
2022-08-17T15:21:57.829Z,8.05
2022-08-17T15:24:24.689Z,8.50
2022-08-17T15:26:51.611Z,9.38
2022-08-17T15:29:18.350Z,8.77
2022-08-17T15:31:45.027Z,11.75
2022-08-17T15:34:11.881Z,11.10
2022-08-17T15:36:38.912Z,8.75
2022-08-17T15:39:15.808Z,8.20
2022-08-17T15:41:47.340Z,13.25
2022-08-17T15:44:30.086Z,12.77
2022-08-17T15:46:59.524Z,12.32
2022-08-17T15:49:26.182Z,8.45
2022-08-17T15:51:52.948Z,7.85
2022-08-17T15:54:22.882Z,10.93
2022-08-17T15:56:50.696Z,12.30
2022-08-17T15:59:17.347Z,10.82
2022-08-17T16:03:01.483Z,11.55
2022-08-17T16:04:31.887Z,7.10
2022-08-17T16:06:59.630Z,18.13
2022-08-17T16:09:26.302Z,9.48
2022-08-17T16:11:55.457Z,11.48
2022-08-17T16:14:24.263Z,12.35
2022-08-17T16:16:50.987Z,11.25
2022-08-17T16:19:17.603Z,10.23
2022-08-17T16:21:44.156Z,14.13
2022-08-17T16:24:13.655Z,11.63
2022-08-17T16:26:42.488Z,12.40
2022-08-17T16:29:09.173Z,11.07
2022-08-17T16:31:37.564Z,14.32
2022-08-17T16:34:17.924Z,8.52
2022-08-17T16:36:55.491Z,8.68
2022-08-17T16:39:27.634Z,9.25
2022-08-17T16:41:55.905Z,9.23
2022-08-17T16:44:22.726Z,12.98
2022-08-17T16:46:50.265Z,10.73
2022-08-17T16:49:24.395Z,10.45
2022-08-17T16:52:04.263Z,11.15
2022-08-17T16:54:30.829Z,12.65
2022-08-17T16:56:57.453Z,14.88
2022-08-17T16:59:40.280Z,9.35
2022-08-17T17:02:13.611Z,10.00
2022-08-17T17:04:48.015Z,13.25
2022-08-17T17:07:36.190Z,11.57
2022-08-17T17:10:08.333Z,8.52
2022-08-17T17:13:02.118Z,8.77
2022-08-17T17:15:28.445Z,10.88
2022-08-17T17:18:06.975Z,10.82
2022-08-17T17:20:47.722Z,7.90
2022-08-17T17:23:23.275Z,8.32
2022-08-17T17:26:17.076Z,3.70
2022-08-17T17:29:00.924Z,5.80
2022-08-17T17:31:37.598Z,5.45
2022-08-17T17:34:08.798Z,5.38
2022-08-17T17:36:50.759Z,6.13
2022-08-17T17:39:20.336Z,6.75
2022-08-17T17:41:57.883Z,6.28
2022-08-17T17:44:30.052Z,5.97
2022-08-17T17:46:59.465Z,9.20
2022-08-17T17:49:33.395Z,6.65
2022-08-17T17:52:22.608Z,6.70
2022-08-17T17:55:04.337Z,3.53
2022-08-17T17:57:37.530Z,5.35
2022-08-17T18:00:16.357Z,7.38
2022-08-17T18:03:20.690Z,3.70
2022-08-17T18:05:50.390Z,4.65
2022-08-17T18:08:48.996Z,4.00
2022-08-17T18:11:54.615Z,7.90
2022-08-17T18:14:38.921Z,4.43
2022-08-17T18:17:05.883Z,6.90
2022-08-17T18:19:32.907Z,3.70
2022-08-17T18:22:20.227Z,4.47
2022-08-17T18:24:54.070Z,4.07
2022-08-17T18:27:33.954Z,4.60
2022-08-17T18:30:29.793Z,3.72
2022-08-17T18:33:24.559Z,4.70
2022-08-17T18:35:58.791Z,4.10
2022-08-17T18:38:34.651Z,6.97
2022-08-17T18:41:19.200Z,6.10
2022-08-17T18:44:02.436Z,4.75
2022-08-17T18:46:36.688Z,5.15
2022-08-17T18:49:08.482Z,3.13
2022-08-17T18:51:42.869Z,4.55
2022-08-17T18:54:22.178Z,3.85
2022-08-17T18:56:51.484Z,3.33
2022-08-17T18:59:35.339Z,5.75
2022-08-17T19:02:28.275Z,4.22
2022-08-17T19:05:07.960Z,4.80
2022-08-17T19:07:36.823Z,3.15
2022-08-17T19:10:31.373Z,5.20
2022-08-17T19:13:12.315Z,4.10
2022-08-17T19:16:14.359Z,6.28
2022-08-17T19:18:43.455Z,4.18
2022-08-17T19:21:19.652Z,5.85
2022-08-17T19:23:59.086Z,5.82
2022-08-17T19:26:53.398Z,4.38
2022-08-17T19:29:22.424Z,4.88
2022-08-17T19:31:49.971Z,6.53
2022-08-17T19:34:33.323Z,3.83
2022-08-17T19:37:18.307Z,4.63
2022-08-17T19:39:48.056Z,4.95
2022-08-17T19:42:49.683Z,3.90
2022-08-17T19:45:42.184Z,6.15
2022-08-17T19:48:25.728Z,4.15
2022-08-17T19:50:53.151Z,5.07
2022-08-17T19:53:54.127Z,4.43
2022-08-17T19:59:07.209Z,7.53
2022-08-17T20:01:44.273Z,5.70
2022-08-17T20:04:31.865Z,7.68
2022-08-17T20:07:28.482Z,4.78
2022-08-17T20:10:05.543Z,4.65
2022-08-17T20:12:38.436Z,4.75
2022-08-17T20:15:07.871Z,4.60
2022-08-17T20:17:38.658Z,4.40
2022-08-17T20:20:43.876Z,5.63
2022-08-17T20:23:35.291Z,4.78
2022-08-17T20:26:22.179Z,5.82
2022-08-17T20:29:08.261Z,3.97
2022-08-17T20:31:50.293Z,9.13
2022-08-17T20:34:25.715Z,5.18
2022-08-17T20:37:03.822Z,4.95
2022-08-17T20:39:56.674Z,5.07
2022-08-17T20:42:23.534Z,3.55
2022-08-17T20:44:54.111Z,6.20
2022-08-17T20:47:31.933Z,4.70
2022-08-17T20:50:08.093Z,5.53
2022-08-17T20:52:41.290Z,4.65
2022-08-17T20:55:09.422Z,3.90
2022-08-17T20:57:36.075Z,4.43
2022-08-17T21:00:19.038Z,6.32
2022-08-17T21:02:51.310Z,6.50
2022-08-17T21:06:19.608Z,6.60
2022-08-17T21:08:55.192Z,5.35
2022-08-17T21:11:57.001Z,3.85
2022-08-17T21:14:38.050Z,5.05
2022-08-17T21:17:17.722Z,7.78
2022-08-17T21:20:10.744Z,4.85
2022-08-17T21:23:03.368Z,4.45
2022-08-17T21:26:02.974Z,5.45
2022-08-17T21:29:31.779Z,4.07
2022-08-17T21:31:59.398Z,5.60
2022-08-17T21:34:36.472Z,6.57
2022-08-17T21:37:28.545Z,3.97
2022-08-17T21:40:18.630Z,6.22
2022-08-17T21:42:47.720Z,6.32
2022-08-17T21:45:35.607Z,7.82
2022-08-17T21:48:13.978Z,5.70
2022-08-17T21:50:44.217Z,5.50
2022-08-17T21:53:27.049Z,4.78
2022-08-17T21:55:57.727Z,5.07
2022-08-17T21:58:32.319Z,4.10
2022-08-17T22:01:26.969Z,4.85
2022-08-17T22:04:00.012Z,4.07
2022-08-17T22:06:36.932Z,3.90
2022-08-17T22:09:09.607Z,5.75
2022-08-17T22:11:54.795Z,7.50
2022-08-17T22:14:51.519Z,5.03
2022-08-17T22:17:36.871Z,6.93
2022-08-17T22:20:08.143Z,6.70
2022-08-17T22:23:08.876Z,7.90
2022-08-17T22:25:38.933Z,5.18
2022-08-17T22:28:11.485Z,7.72
2022-08-17T22:30:42.585Z,3.58
2022-08-17T22:33:31.526Z,8.35
2022-08-17T22:36:35.173Z,7.10
2022-08-17T22:39:26.306Z,3.63
2022-08-17T22:42:02.373Z,5.00
2022-08-17T22:44:33.250Z,5.18
2022-08-17T22:47:26.470Z,5.68
2022-08-17T22:49:57.767Z,5.05
2022-08-17T22:53:02.985Z,3.95
2022-08-17T22:55:49.977Z,6.65
2022-08-17T22:58:38.658Z,5.30
2022-08-17T23:01:33.216Z,3.80
2022-08-17T23:04:06.959Z,3.88
2022-08-17T23:06:36.926Z,6.50
2022-08-17T23:09:05.898Z,7.20
2022-08-17T23:11:48.986Z,4.57
2022-08-17T23:14:19.636Z,9.05
2022-08-17T23:16:48.658Z,5.28
2022-08-17T23:19:18.605Z,6.28
2022-08-17T23:21:45.755Z,4.63
2022-08-17T23:24:21.580Z,5.60
2022-08-17T23:26:48.374Z,8.27
2022-08-17T23:29:14.948Z,4.47
2022-08-17T23:31:41.748Z,8.40
2022-08-17T23:34:13.128Z,9.05
2022-08-17T23:36:39.837Z,7.53
2022-08-17T23:39:07.089Z,4.97
2022-08-17T23:41:38.614Z,5.53
2022-08-17T23:44:06.504Z,5.90
2022-08-17T23:46:34.421Z,7.18
2022-08-17T23:49:01.160Z,8.80
2022-08-17T23:51:35.619Z,5.80
2022-08-17T23:54:12.606Z,8.80
2022-08-17T23:56:57.283Z,3.90
2022-08-17T23:59:23.952Z,10.93
